sensor_id;sensor_type;location;lat;lon;timestamp;pressure;altitude;pressure_sealevel;temperature;humidity
56992;BME280;42885;49.754;18.636;2023-10-09T00:01:08;99214.80;;;9.66;100.00
56992;BME280;42885;49.754;18.636;2023-10-09T00:03:48;99198.24;;;9.44;100.00
56992;BME280;42885;49.754;18.636;2023-10-09T00:06:23;99202.11;;;9.46;100.00
56992;BME280;42885;49.754;18.636;2023-10-09T00:08:56;99205.73;;;9.64;100.00
56992;BME280;42885;49.754;18.636;2023-10-09T00:11:27;99200.56;;;9.62;100.00
56992;BME280;42885;49.754;18.636;2023-10-09T00:13:59;99189.77;;;9.60;100.00
56992;BME280;42885;49.754;18.636;2023-10-09T00:16:30;99187.19;;;9.81;100.00
56992;BME280;42885;49.754;18.636;2023-10-09T00:19:06;99181.03;;;9.82;100.00
56992;BME280;42885;49.754;18.636;2023-10-09T00:21:49;99185.27;;;9.74;100.00
56992;BME280;42885;49.754;18.636;2023-10-09T00:24:21;99184.30;;;9.76;100.00
56992;BME280;42885;49.754;18.636;2023-10-09T00:26:55;99183.70;;;9.80;100.00
56992;BME280;42885;49.754;18.636;2023-10-09T00:29:28;99182.66;;;9.74;100.00
56992;BME280;42885;49.754;18.636;2023-10-09T00:32:00;99170.06;;;9.73;100.00
56992;BME280;42885;49.754;18.636;2023-10-09T00:34:34;99168.53;;;9.57;100.00
56992;BME280;42885;49.754;18.636;2023-10-09T00:37:10;99168.09;;;9.47;100.00
56992;BME280;42885;49.754;18.636;2023-10-09T00:39:44;99151.35;;;9.52;100.00
56992;BME280;42885;49.754;18.636;2023-10-09T00:42:16;99142.39;;;9.88;100.00
56992;BME280;42885;49.754;18.636;2023-10-09T00:44:49;99142.54;;;9.85;100.00
56992;BME280;42885;49.754;18.636;2023-10-09T00:50:13;99104.32;;;9.72;100.00
56992;BME280;42885;49.754;18.636;2023-10-09T00:52:52;99088.94;;;9.75;100.00
56992;BME280;42885;49.754;18.636;2023-10-09T00:55:37;99085.38;;;9.97;100.00
56992;BME280;42885;49.754;18.636;2023-10-09T00:58:12;99088.50;;;10.05;100.00
56992;BME280;42885;49.754;18.636;2023-10-09T01:00:44;99087.78;;;10.01;100.00
56992;BME280;42885;49.754;18.636;2023-10-09T01:03:17;99094.05;;;10.08;100.00
56992;BME280;42885;49.754;18.636;2023-10-09T01:05:56;99093.37;;;9.94;100.00
56992;BME280;42885;49.754;18.636;2023-10-09T01:08:29;99094.92;;;9.98;100.00
56992;BME280;42885;49.754;18.636;2023-10-09T01:11:15;99091.64;;;9.73;98.87
56992;BME280;42885;49.754;18.636;2023-10-09T01:13:51;99089.75;;;10.07;97.84
56992;BME280;42885;49.754;18.636;2023-10-09T01:16:23;99095.98;;;9.94;97.62
56992;BME280;42885;49.754;18.636;2023-10-09T01:18:55;99100.38;;;10.12;93.80
56992;BME280;42885;49.754;18.636;2023-10-09T03:56:19;98954.02;;;10.28;75.34
56992;BME280;42885;49.754;18.636;2023-10-09T03:58:51;98953.50;;;10.30;73.86
56992;BME280;42885;49.754;18.636;2023-10-09T04:01:24;98950.63;;;10.45;73.51
56992;BME280;42885;49.754;18.636;2023-10-09T04:03:59;98957.42;;;10.30;74.75
56992;BME280;42885;49.754;18.636;2023-10-09T04:06:31;98943.89;;;10.40;74.47
56992;BME280;42885;49.754;18.636;2023-10-09T04:09:04;98928.22;;;10.49;76.77
56992;BME280;42885;49.754;18.636;2023-10-09T04:11:53;98923.08;;;10.47;76.75
56992;BME280;42885;49.754;18.636;2023-10-09T04:14:30;98925.22;;;10.48;75.21
56992;BME280;42885;49.754;18.636;2023-10-09T04:17:04;98924.37;;;10.73;72.72
56992;BME280;42885;49.754;18.636;2023-10-09T04:19:55;98924.75;;;10.74;70.73
56992;BME280;42885;49.754;18.636;2023-10-09T04:22:45;98915.20;;;10.73;70.52
56992;BME280;42885;49.754;18.636;2023-10-09T04:25:24;98906.59;;;10.71;71.94
56992;BME280;42885;49.754;18.636;2023-10-09T04:27:57;98898.11;;;10.66;73.43
56992;BME280;42885;49.754;18.636;2023-10-09T04:30:42;98884.28;;;10.55;71.28
56992;BME280;42885;49.754;18.636;2023-10-09T04:33:20;98879.13;;;10.63;70.62
56992;BME280;42885;49.754;18.636;2023-10-09T04:36:07;98868.57;;;10.46;70.46
56992;BME280;42885;49.754;18.636;2023-10-09T04:38:53;98855.48;;;10.46;70.44
56992;BME280;42885;49.754;18.636;2023-10-09T04:41:35;98858.02;;;10.57;70.50
56992;BME280;42885;49.754;18.636;2023-10-09T04:44:13;98850.87;;;10.52;70.59
56992;BME280;42885;49.754;18.636;2023-10-09T04:46:52;98840.44;;;10.41;71.61
56992;BME280;42885;49.754;18.636;2023-10-09T04:49:32;98848.29;;;10.41;71.17
56992;BME280;42885;49.754;18.636;2023-10-09T04:52:18;98844.55;;;10.56;70.57
56992;BME280;42885;49.754;18.636;2023-10-09T04:54:58;98841.00;;;10.57;69.68
56992;BME280;42885;49.754;18.636;2023-10-09T04:57:43;98853.78;;;10.72;69.45
56992;BME280;42885;49.754;18.636;2023-10-09T05:00:18;98861.43;;;10.93;67.73
56992;BME280;42885;49.754;18.636;2023-10-09T05:02:58;98864.53;;;10.83;67.27
56992;BME280;42885;49.754;18.636;2023-10-09T05:05:32;98858.84;;;10.84;66.51
56992;BME280;42885;49.754;18.636;2023-10-09T05:08:16;98857.05;;;10.93;67.21
56992;BME280;42885;49.754;18.636;2023-10-09T05:10:52;98864.42;;;11.03;66.54
56992;BME280;42885;49.754;18.636;2023-10-09T05:13:35;98860.86;;;11.12;68.47
56992;BME280;42885;49.754;18.636;2023-10-09T05:16:14;98860.51;;;11.19;67.12
56992;BME280;42885;49.754;18.636;2023-10-09T05:18:51;98854.09;;;10.99;71.22
56992;BME280;42885;49.754;18.636;2023-10-09T05:21:40;98859.53;;;10.87;74.66
56992;BME280;42885;49.754;18.636;2023-10-09T05:24:16;98858.11;;;10.55;74.46
56992;BME280;42885;49.754;18.636;2023-10-09T05:26:50;98855.63;;;10.52;77.59
56992;BME280;42885;49.754;18.636;2023-10-09T05:29:25;98851.57;;;10.55;82.45
56992;BME280;42885;49.754;18.636;2023-10-09T05:32:07;98849.49;;;10.44;84.19
56992;BME280;42885;49.754;18.636;2023-10-09T05:34:35;98849.38;;;10.37;84.88
56992;BME280;42885;49.754;18.636;2023-10-09T05:37:08;98839.83;;;10.10;87.29
56992;BME280;42885;49.754;18.636;2023-10-09T05:39:52;98833.59;;;10.03;88.68
56992;BME280;42885;49.754;18.636;2023-10-09T05:42:37;98830.34;;;9.89;88.14
56992;BME280;42885;49.754;18.636;2023-10-09T05:45:15;98815.27;;;9.86;89.94
56992;BME280;42885;49.754;18.636;2023-10-09T05:48:05;98804.81;;;9.86;90.03
56992;BME280;42885;49.754;18.636;2023-10-09T05:50:37;98782.22;;;9.76;92.92
56992;BME280;42885;49.754;18.636;2023-10-09T05:53:10;98779.96;;;9.68;92.10
56992;BME280;42885;49.754;18.636;2023-10-09T05:55:43;98785.44;;;9.72;90.94
56992;BME280;42885;49.754;18.636;2023-10-09T05:58:31;98782.25;;;9.66;93.43
56992;BME280;42885;49.754;18.636;2023-10-09T06:01:20;98780.80;;;9.51;93.46
56992;BME280;42885;49.754;18.636;2023-10-09T06:03:53;98782.70;;;9.56;93.33
56992;BME280;42885;49.754;18.636;2023-10-09T06:06:28;98782.00;;;9.53;94.87
56992;BME280;42885;49.754;18.636;2023-10-09T06:09:15;98782.73;;;9.74;98.57
56992;BME280;42885;49.754;18.636;2023-10-09T06:11:50;98773.02;;;9.58;98.01
56992;BME280;42885;49.754;18.636;2023-10-09T06:14:26;98791.53;;;9.45;97.18
56992;BME280;42885;49.754;18.636;2023-10-09T06:17:01;98796.72;;;9.64;100.00
56992;BME280;42885;49.754;18.636;2023-10-09T06:19:46;98806.25;;;9.65;99.19
56992;BME280;42885;49.754;18.636;2023-10-09T06:22:18;98815.30;;;9.67;100.00
56992;BME280;42885;49.754;18.636;2023-10-09T06:25:07;98806.83;;;9.81;100.00
56992;BME280;42885;49.754;18.636;2023-10-09T06:27:42;98806.25;;;9.74;100.00
56992;BME280;42885;49.754;18.636;2023-10-09T06:30:18;98808.55;;;9.62;100.00
56992;BME280;42885;49.754;18.636;2023-10-09T06:32:51;98807.69;;;9.62;100.00
56992;BME280;42885;49.754;18.636;2023-10-09T06:35:34;98821.42;;;9.76;100.00
56992;BME280;42885;49.754;18.636;2023-10-09T06:38:05;98833.09;;;9.77;100.00
56992;BME280;42885;49.754;18.636;2023-10-09T06:40:53;98839.12;;;9.80;100.00
56992;BME280;42885;49.754;18.636;2023-10-09T06:43:38;98861.62;;;9.82;100.00
56992;BME280;42885;49.754;18.636;2023-10-09T06:46:14;98846.83;;;10.00;100.00
56992;BME280;42885;49.754;18.636;2023-10-09T06:48:54;98846.12;;;9.97;100.00
56992;BME280;42885;49.754;18.636;2023-10-09T06:51:29;98836.28;;;9.84;100.00
56992;BME280;42885;49.754;18.636;2023-10-09T06:54:02;98833.50;;;9.87;100.00
56992;BME280;42885;49.754;18.636;2023-10-09T06:56:38;98832.36;;;10.11;100.00
56992;BME280;42885;49.754;18.636;2023-10-09T06:59:11;98819.16;;;10.14;100.00
56992;BME280;42885;49.754;18.636;2023-10-09T07:01:50;98825.38;;;10.29;100.00
56992;BME280;42885;49.754;18.636;2023-10-09T07:04:37;98818.67;;;10.14;100.00
56992;BME280;42885;49.754;18.636;2023-10-09T07:07:10;98811.30;;;10.31;100.00
56992;BME280;42885;49.754;18.636;2023-10-09T07:09:43;98795.07;;;10.16;100.00
56992;BME280;42885;49.754;18.636;2023-10-09T07:12:16;98783.45;;;10.22;100.00
56992;BME280;42885;49.754;18.636;2023-10-09T07:14:54;98757.64;;;10.40;100.00
56992;BME280;42885;49.754;18.636;2023-10-09T07:17:38;98753.61;;;10.43;100.00
56992;BME280;42885;49.754;18.636;2023-10-09T07:20:12;98741.06;;;10.06;100.00
56992;BME280;42885;49.754;18.636;2023-10-09T07:22:47;98736.70;;;9.89;100.00
56992;BME280;42885;49.754;18.636;2023-10-09T07:25:30;98734.45;;;9.81;100.00
56992;BME280;42885;49.754;18.636;2023-10-09T07:28:03;98734.08;;;9.80;100.00
56992;BME280;42885;49.754;18.636;2023-10-09T07:30:37;98721.17;;;9.77;100.00
56992;BME280;42885;49.754;18.636;2023-10-09T07:33:08;98727.08;;;9.89;100.00
56992;BME280;42885;49.754;18.636;2023-10-09T07:35:51;98725.99;;;10.02;100.00
56992;BME280;42885;49.754;18.636;2023-10-09T07:38:22;98724.31;;;10.10;100.00
56992;BME280;42885;49.754;18.636;2023-10-09T07:40:53;98724.21;;;10.12;100.00
56992;BME280;42885;49.754;18.636;2023-10-09T07:43:36;98720.84;;;9.83;100.00
56992;BME280;42885;49.754;18.636;2023-10-09T07:46:17;98722.53;;;9.67;100.00
56992;BME280;42885;49.754;18.636;2023-10-09T07:49:05;98731.15;;;9.77;100.00
56992;BME280;42885;49.754;18.636;2023-10-09T07:51:40;98736.01;;;9.68;100.00
56992;BME280;42885;49.754;18.636;2023-10-09T07:54:22;98733.38;;;9.59;100.00
56992;BME280;42885;49.754;18.636;2023-10-09T07:57:06;98717.00;;;9.73;100.00
56992;BME280;42885;49.754;18.636;2023-10-09T07:59:39;98715.70;;;9.73;100.00
56992;BME280;42885;49.754;18.636;2023-10-09T08:02:12;98734.83;;;9.64;100.00
56992;BME280;42885;49.754;18.636;2023-10-09T08:04:46;98714.92;;;9.53;100.00
56992;BME280;42885;49.754;18.636;2023-10-09T08:07:22;98709.16;;;9.55;100.00
56992;BME280;42885;49.754;18.636;2023-10-09T08:09:56;98707.47;;;9.54;100.00
56992;BME280;42885;49.754;18.636;2023-10-09T08:12:45;98714.75;;;9.39;100.00
56992;BME280;42885;49.754;18.636;2023-10-09T08:15:21;98716.78;;;9.23;100.00
56992;BME280;42885;49.754;18.636;2023-10-09T08:17:56;98699.81;;;9.23;100.00
56992;BME280;42885;49.754;18.636;2023-10-09T08:20:29;98695.70;;;9.36;100.00
56992;BME280;42885;49.754;18.636;2023-10-09T08:23:19;98675.70;;;9.18;100.00
56992;BME280;42885;49.754;18.636;2023-10-09T08:26:05;98678.47;;;9.23;100.00
56992;BME280;42885;49.754;18.636;2023-10-09T08:28:47;98663.12;;;9.26;100.00
56992;BME280;42885;49.754;18.636;2023-10-09T08:31:18;98652.22;;;9.35;100.00
56992;BME280;42885;49.754;18.636;2023-10-09T08:33:51;98637.53;;;9.50;100.00
56992;BME280;42885;49.754;18.636;2023-10-09T08:36:29;98627.83;;;9.70;100.00
56992;BME280;42885;49.754;18.636;2023-10-09T08:39:02;98625.62;;;9.62;100.00
56992;BME280;42885;49.754;18.636;2023-10-09T08:41:47;98634.60;;;9.66;100.00
56992;BME280;42885;49.754;18.636;2023-10-09T08:44:24;98628.69;;;9.71;100.00
56992;BME280;42885;49.754;18.636;2023-10-09T08:46:57;98627.25;;;9.47;100.00
56992;BME280;42885;49.754;18.636;2023-10-09T08:49:28;98625.55;;;9.64;100.00
56992;BME280;42885;49.754;18.636;2023-10-09T08:52:03;98629.23;;;9.60;100.00
56992;BME280;42885;49.754;18.636;2023-10-09T08:54:35;98617.23;;;9.64;100.00
56992;BME280;42885;49.754;18.636;2023-10-09T08:57:07;98569.06;;;9.53;100.00
56992;BME280;42885;49.754;18.636;2023-10-09T08:59:42;98567.63;;;9.29;100.00
56992;BME280;42885;49.754;18.636;2023-10-09T09:02:14;98578.53;;;9.38;100.00
56992;BME280;42885;49.754;18.636;2023-10-09T09:04:45;98572.91;;;9.54;100.00
56992;BME280;42885;49.754;18.636;2023-10-09T09:07:28;98557.55;;;9.57;100.00
56992;BME280;42885;49.754;18.636;2023-10-09T09:10:01;98557.20;;;9.72;100.00
56992;BME280;42885;49.754;18.636;2023-10-09T09:12:38;98546.05;;;9.77;100.00
56992;BME280;42885;49.754;18.636;2023-10-09T09:15:13;98549.84;;;9.62;100.00
56992;BME280;42885;49.754;18.636;2023-10-09T09:17:52;98550.66;;;10.22;100.00
56992;BME280;42885;49.754;18.636;2023-10-09T09:20:26;98554.23;;;9.44;100.00
56992;BME280;42885;49.754;18.636;2023-10-09T09:23:04;98558.95;;;9.46;100.00
56992;BME280;42885;49.754;18.636;2023-10-09T09:25:48;98545.78;;;9.57;100.00
56992;BME280;42885;49.754;18.636;2023-10-09T09:28:20;98534.12;;;9.46;100.00
56992;BME280;42885;49.754;18.636;2023-10-09T09:30:51;98521.27;;;10.09;100.00
56992;BME280;42885;49.754;18.636;2023-10-09T09:33:25;98519.55;;;9.92;100.00
56992;BME280;42885;49.754;18.636;2023-10-09T09:36:02;98505.09;;;9.94;100.00
56992;BME280;42885;49.754;18.636;2023-10-09T09:38:36;98499.06;;;10.00;100.00
56992;BME280;42885;49.754;18.636;2023-10-09T09:41:20;98481.56;;;9.94;100.00
56992;BME280;42885;49.754;18.636;2023-10-09T09:43:59;98486.63;;;10.13;100.00
56992;BME280;42885;49.754;18.636;2023-10-09T09:46:34;98489.45;;;10.17;100.00
56992;BME280;42885;49.754;18.636;2023-10-09T09:49:07;98488.81;;;10.21;100.00
56992;BME280;42885;49.754;18.636;2023-10-09T09:51:39;98496.81;;;10.50;100.00
56992;BME280;42885;49.754;18.636;2023-10-09T09:54:19;98483.23;;;10.66;100.00
56992;BME280;42885;49.754;18.636;2023-10-09T09:56:46;98473.11;;;10.53;100.00
56992;BME280;42885;49.754;18.636;2023-10-09T09:59:24;98471.14;;;10.40;100.00
56992;BME280;42885;49.754;18.636;2023-10-09T10:01:58;98465.98;;;10.48;100.00
56992;BME280;42885;49.754;18.636;2023-10-09T10:04:32;98464.30;;;10.46;100.00
56992;BME280;42885;49.754;18.636;2023-10-09T10:07:07;98471.45;;;10.66;100.00
56992;BME280;42885;49.754;18.636;2023-10-09T10:09:43;98470.44;;;10.92;100.00
56992;BME280;42885;49.754;18.636;2023-10-09T10:12:15;98480.11;;;10.83;98.07
56992;BME280;42885;49.754;18.636;2023-10-09T10:14:52;98488.90;;;10.82;100.00
56992;BME280;42885;49.754;18.636;2023-10-09T10:17:28;98485.03;;;11.04;99.81
56992;BME280;42885;49.754;18.636;2023-10-09T10:20:07;98484.06;;;10.90;100.00
56992;BME280;42885;49.754;18.636;2023-10-09T10:22:49;98485.50;;;11.10;100.00
56992;BME280;42885;49.754;18.636;2023-10-09T10:28:25;98495.23;;;10.70;100.00
56992;BME280;42885;49.754;18.636;2023-10-09T10:31:00;98492.91;;;10.73;100.00
56992;BME280;42885;49.754;18.636;2023-10-09T10:36:27;98502.23;;;10.63;100.00
56992;BME280;42885;49.754;18.636;2023-10-09T10:39:05;98493.52;;;10.93;100.00
56992;BME280;42885;49.754;18.636;2023-10-09T10:41:54;98476.29;;;10.51;100.00
56992;BME280;42885;49.754;18.636;2023-10-09T10:44:33;98498.06;;;10.82;100.00
56992;BME280;42885;49.754;18.636;2023-10-09T10:47:07;98504.50;;;10.76;100.00
56992;BME280;42885;49.754;18.636;2023-10-09T10:49:44;98490.58;;;10.36;100.00
56992;BME280;42885;49.754;18.636;2023-10-09T10:52:22;98496.88;;;10.64;100.00
56992;BME280;42885;49.754;18.636;2023-10-09T10:55:06;98495.20;;;10.63;100.00
56992;BME280;42885;49.754;18.636;2023-10-09T10:57:37;98482.75;;;10.59;100.00
56992;BME280;42885;49.754;18.636;2023-10-09T11:00:12;98469.75;;;10.58;100.00
56992;BME280;42885;49.754;18.636;2023-10-09T11:02:47;98468.78;;;11.20;100.00
56992;BME280;42885;49.754;18.636;2023-10-09T11:05:18;98489.56;;;10.85;100.00
56992;BME280;42885;49.754;18.636;2023-10-09T11:07:57;98481.88;;;10.75;100.00
56992;BME280;42885;49.754;18.636;2023-10-09T11:10:31;98490.05;;;10.54;100.00
56992;BME280;42885;49.754;18.636;2023-10-09T11:13:02;98492.77;;;10.60;100.00
56992;BME280;42885;49.754;18.636;2023-10-09T11:15:40;98489.14;;;10.70;100.00
56992;BME280;42885;49.754;18.636;2023-10-09T11:18:15;98496.37;;;10.50;100.00
56992;BME280;42885;49.754;18.636;2023-10-09T11:20:52;98482.94;;;10.56;100.00
56992;BME280;42885;49.754;18.636;2023-10-09T11:23:32;98479.81;;;10.50;100.00
56992;BME280;42885;49.754;18.636;2023-10-09T11:26:07;98472.23;;;10.29;100.00
56992;BME280;42885;49.754;18.636;2023-10-09T11:29:11;98474.16;;;10.57;100.00
56992;BME280;42885;49.754;18.636;2023-10-09T11:32:07;98460.30;;;10.39;100.00
56992;BME280;42885;49.754;18.636;2023-10-09T11:34:40;98467.47;;;10.44;100.00
56992;BME280;42885;49.754;18.636;2023-10-09T11:37:14;98463.41;;;10.39;100.00
56992;BME280;42885;49.754;18.636;2023-10-09T11:39:53;98455.34;;;10.35;100.00
56992;BME280;42885;49.754;18.636;2023-10-09T11:42:30;98445.02;;;10.24;100.00
56992;BME280;42885;49.754;18.636;2023-10-09T11:45:28;98447.94;;;10.27;100.00
56992;BME280;42885;49.754;18.636;2023-10-09T11:48:15;98426.41;;;10.22;100.00
56992;BME280;42885;49.754;18.636;2023-10-09T11:50:44;98435.91;;;10.15;100.00
56992;BME280;42885;49.754;18.636;2023-10-09T11:53:43;98438.56;;;10.23;100.00
56992;BME280;42885;49.754;18.636;2023-10-09T11:56:16;98415.42;;;10.31;100.00
56992;BME280;42885;49.754;18.636;2023-10-09T11:58:50;98421.93;;;10.24;100.00
56992;BME280;42885;49.754;18.636;2023-10-09T12:01:21;98424.73;;;10.21;100.00
56992;BME280;42885;49.754;18.636;2023-10-09T12:03:53;98414.75;;;10.04;100.00
56992;BME280;42885;49.754;18.636;2023-10-09T12:06:24;98411.45;;;10.40;100.00
56992;BME280;42885;49.754;18.636;2023-10-09T12:08:57;98415.33;;;10.49;100.00
56992;BME280;42885;49.754;18.636;2023-10-09T12:11:28;98409.45;;;10.52;100.00
56992;BME280;42885;49.754;18.636;2023-10-09T12:13:59;98404.59;;;10.53;100.00
56992;BME280;42885;49.754;18.636;2023-10-09T12:16:30;98409.64;;;10.49;100.00
56992;BME280;42885;49.754;18.636;2023-10-09T12:19:03;98412.05;;;10.45;100.00
56992;BME280;42885;49.754;18.636;2023-10-09T12:21:35;98410.34;;;10.74;100.00
56992;BME280;42885;49.754;18.636;2023-10-09T12:24:07;98398.87;;;10.84;100.00
56992;BME280;42885;49.754;18.636;2023-10-09T12:26:39;98404.70;;;10.52;100.00
56992;BME280;42885;49.754;18.636;2023-10-09T12:29:12;98406.75;;;10.54;100.00
56992;BME280;42885;49.754;18.636;2023-10-09T12:31:43;98406.80;;;10.83;100.00
56992;BME280;42885;49.754;18.636;2023-10-09T12:34:31;98402.09;;;10.66;100.00
56992;BME280;42885;49.754;18.636;2023-10-09T12:37:03;98395.36;;;11.29;100.00
56992;BME280;42885;49.754;18.636;2023-10-09T12:39:34;98394.13;;;11.35;100.00
56992;BME280;42885;49.754;18.636;2023-10-09T12:42:07;98401.50;;;11.28;100.00
56992;BME280;42885;49.754;18.636;2023-10-09T12:44:38;98404.60;;;11.20;100.00
56992;BME280;42885;49.754;18.636;2023-10-09T12:47:12;98406.09;;;11.39;100.00
56992;BME280;42885;49.754;18.636;2023-10-09T12:49:43;98398.59;;;11.40;100.00
56992;BME280;42885;49.754;18.636;2023-10-09T12:52:14;98394.86;;;11.44;100.00
56992;BME280;42885;49.754;18.636;2023-10-09T12:54:49;98396.70;;;11.49;100.00
56992;BME280;42885;49.754;18.636;2023-10-09T12:57:20;98389.98;;;11.60;100.00
56992;BME280;42885;49.754;18.636;2023-10-09T12:59:51;98382.95;;;11.53;100.00
56992;BME280;42885;49.754;18.636;2023-10-09T13:02:23;98384.84;;;11.43;100.00
56992;BME280;42885;49.754;18.636;2023-10-09T13:05:00;98393.70;;;11.70;100.00
56992;BME280;42885;49.754;18.636;2023-10-09T13:07:32;98388.56;;;11.96;100.00
56992;BME280;42885;49.754;18.636;2023-10-09T13:10:03;98381.83;;;11.64;100.00
56992;BME280;42885;49.754;18.636;2023-10-09T13:12:42;98381.55;;;11.62;100.00
56992;BME280;42885;49.754;18.636;2023-10-09T13:15:13;98376.99;;;11.86;100.00
56992;BME280;42885;49.754;18.636;2023-10-09T13:17:43;98376.80;;;11.81;100.00
56992;BME280;42885;49.754;18.636;2023-10-09T13:20:14;98374.78;;;12.00;100.00
56992;BME280;42885;49.754;18.636;2023-10-09T13:22:45;98379.88;;;11.95;100.00
56992;BME280;42885;49.754;18.636;2023-10-09T13:25:17;98374.83;;;11.85;100.00
56992;BME280;42885;49.754;18.636;2023-10-09T13:27:52;98370.17;;;11.76;100.00
56992;BME280;42885;49.754;18.636;2023-10-09T13:30:23;98376.33;;;11.89;100.00
56992;BME280;42885;49.754;18.636;2023-10-09T13:32:54;98379.55;;;12.07;100.00
56992;BME280;42885;49.754;18.636;2023-10-09T13:35:25;98378.98;;;12.17;100.00
56992;BME280;42885;49.754;18.636;2023-10-09T13:37:57;98370.19;;;12.10;100.00
56992;BME280;42885;49.754;18.636;2023-10-09T13:40:29;98366.72;;;12.10;100.00
56992;BME280;42885;49.754;18.636;2023-10-09T13:43:00;98364.31;;;12.27;100.00
56992;BME280;42885;49.754;18.636;2023-10-09T13:45:30;98354.55;;;12.29;100.00
56992;BME280;42885;49.754;18.636;2023-10-09T13:48:02;98359.58;;;12.32;100.00
56992;BME280;42885;49.754;18.636;2023-10-09T13:50:34;98354.30;;;12.19;100.00
56992;BME280;42885;49.754;18.636;2023-10-09T13:53:06;98361.09;;;12.49;100.00
56992;BME280;42885;49.754;18.636;2023-10-09T13:55:39;98359.91;;;12.41;100.00
56992;BME280;42885;49.754;18.636;2023-10-09T13:58:11;98357.16;;;12.49;100.00
56992;BME280;42885;49.754;18.636;2023-10-09T14:00:45;98357.00;;;12.45;100.00
56992;BME280;42885;49.754;18.636;2023-10-09T14:03:17;98360.80;;;12.34;100.00
56992;BME280;42885;49.754;18.636;2023-10-09T14:05:50;98353.98;;;12.44;100.00
56992;BME280;42885;49.754;18.636;2023-10-09T14:08:24;98350.46;;;12.71;100.00
56992;BME280;42885;49.754;18.636;2023-10-09T14:10:56;98350.88;;;12.78;100.00
56992;BME280;42885;49.754;18.636;2023-10-09T14:13:27;98339.51;;;12.51;100.00
56992;BME280;42885;49.754;18.636;2023-10-09T14:15:58;98343.50;;;12.57;100.00
56992;BME280;42885;49.754;18.636;2023-10-09T14:18:30;98346.73;;;12.35;100.00
56992;BME280;42885;49.754;18.636;2023-10-09T14:21:02;98344.26;;;12.59;100.00
56992;BME280;42885;49.754;18.636;2023-10-09T14:23:37;98349.34;;;12.68;100.00
56992;BME280;42885;49.754;18.636;2023-10-09T14:26:08;98350.78;;;12.66;100.00
56992;BME280;42885;49.754;18.636;2023-10-09T14:28:40;98354.50;;;12.70;100.00
56992;BME280;42885;49.754;18.636;2023-10-09T14:31:12;98353.86;;;12.79;100.00
56992;BME280;42885;49.754;18.636;2023-10-09T14:33:44;98365.53;;;12.62;100.00
56992;BME280;42885;49.754;18.636;2023-10-09T14:36:17;98365.66;;;12.53;100.00
56992;BME280;42885;49.754;18.636;2023-10-09T14:38:49;98361.55;;;12.49;100.00
56992;BME280;42885;49.754;18.636;2023-10-09T14:41:22;98370.95;;;12.46;100.00
56992;BME280;42885;49.754;18.636;2023-10-09T14:43:55;98367.89;;;12.59;100.00
56992;BME280;42885;49.754;18.636;2023-10-09T14:46:27;98363.95;;;12.59;100.00
56992;BME280;42885;49.754;18.636;2023-10-09T14:48:59;98362.51;;;12.61;100.00
56992;BME280;42885;49.754;18.636;2023-10-09T14:51:30;98361.62;;;12.42;100.00
56992;BME280;42885;49.754;18.636;2023-10-09T14:54:01;98359.88;;;12.48;100.00
56992;BME280;42885;49.754;18.636;2023-10-09T14:56:32;98362.67;;;12.52;100.00
56992;BME280;42885;49.754;18.636;2023-10-09T14:59:04;98362.03;;;12.48;100.00
56992;BME280;42885;49.754;18.636;2023-10-09T15:01:36;98359.50;;;12.47;100.00
56992;BME280;42885;49.754;18.636;2023-10-09T15:04:07;98362.67;;;12.52;100.00
56992;BME280;42885;49.754;18.636;2023-10-09T15:06:39;98366.52;;;12.53;100.00
56992;BME280;42885;49.754;18.636;2023-10-09T15:09:10;98370.31;;;12.42;100.00
56992;BME280;42885;49.754;18.636;2023-10-09T15:11:43;98367.41;;;12.39;100.00
56992;BME280;42885;49.754;18.636;2023-10-09T15:14:14;98363.48;;;12.39;100.00
56992;BME280;42885;49.754;18.636;2023-10-09T15:16:45;98366.69;;;12.37;100.00
56992;BME280;42885;49.754;18.636;2023-10-09T15:19:17;98369.31;;;12.17;100.00
56992;BME280;42885;49.754;18.636;2023-10-09T15:21:47;98378.13;;;12.70;100.00
56992;BME280;42885;49.754;18.636;2023-10-09T15:24:18;98375.88;;;12.37;100.00
56992;BME280;42885;49.754;18.636;2023-10-09T15:26:50;98373.21;;;12.45;100.00
56992;BME280;42885;49.754;18.636;2023-10-09T15:29:27;98379.56;;;12.48;100.00
56992;BME280;42885;49.754;18.636;2023-10-09T15:32:01;98385.21;;;12.29;100.00
56992;BME280;42885;49.754;18.636;2023-10-09T15:34:36;98386.64;;;12.20;100.00
56992;BME280;42885;49.754;18.636;2023-10-09T15:37:08;98385.23;;;12.21;100.00
56992;BME280;42885;49.754;18.636;2023-10-09T15:39:39;98389.28;;;12.13;100.00
56992;BME280;42885;49.754;18.636;2023-10-09T15:42:10;98383.34;;;12.23;100.00
56992;BME280;42885;49.754;18.636;2023-10-09T15:44:43;98385.87;;;12.25;100.00
56992;BME280;42885;49.754;18.636;2023-10-09T15:47:15;98380.96;;;12.13;100.00
56992;BME280;42885;49.754;18.636;2023-10-09T15:49:46;98395.03;;;11.97;100.00
56992;BME280;42885;49.754;18.636;2023-10-09T15:52:17;98402.23;;;12.01;100.00
56992;BME280;42885;49.754;18.636;2023-10-09T15:54:49;98401.34;;;12.22;100.00
56992;BME280;42885;49.754;18.636;2023-10-09T15:57:21;98407.58;;;12.34;100.00
56992;BME280;42885;49.754;18.636;2023-10-09T15:59:51;98408.67;;;12.37;100.00
56992;BME280;42885;49.754;18.636;2023-10-09T16:02:23;98412.24;;;12.57;100.00
56992;BME280;42885;49.754;18.636;2023-10-09T16:04:54;98415.39;;;12.29;100.00
56992;BME280;42885;49.754;18.636;2023-10-09T16:07:27;98420.29;;;12.20;100.00
56992;BME280;42885;49.754;18.636;2023-10-09T16:09:58;98421.67;;;12.26;100.00
56992;BME280;42885;49.754;18.636;2023-10-09T16:12:30;98422.11;;;12.53;100.00